sensor_id;sensor_type;location;lat;lon;timestamp;pressure;altitude;pressure_sealevel;temperature;humidity
31299;BME280;17927;52.350;13.402;2023-02-15T00:01:43;102809.97;;;8.57;52.26
31299;BME280;17927;52.350;13.402;2023-02-15T00:04:09;102804.75;;;8.53;52.36
31299;BME280;17927;52.350;13.402;2023-02-15T00:06:35;102804.13;;;8.48;51.92
31299;BME280;17927;52.350;13.402;2023-02-15T00:09:00;102801.72;;;8.42;51.82
31299;BME280;17927;52.350;13.402;2023-02-15T00:11:26;102794.88;;;8.35;52.14
31299;BME280;17927;52.350;13.402;2023-02-15T00:14:21;102797.91;;;8.29;51.97
31299;BME280;17927;52.350;13.402;2023-02-15T00:16:48;102795.47;;;8.24;52.35
31299;BME280;17927;52.350;13.402;2023-02-15T00:19:16;102800.03;;;8.22;52.28
31299;BME280;17927;52.350;13.402;2023-02-15T00:21:42;102796.47;;;8.21;52.48
31299;BME280;17927;52.350;13.402;2023-02-15T00:24:09;102799.31;;;8.18;52.33
31299;BME280;17927;52.350;13.402;2023-02-15T00:26:37;102794.94;;;8.16;52.45
31299;BME280;17927;52.350;13.402;2023-02-15T00:29:02;102790.66;;;8.12;52.20
31299;BME280;17927;52.350;13.402;2023-02-15T00:31:29;102785.50;;;8.07;52.27
31299;BME280;17927;52.350;13.402;2023-02-15T00:33:55;102792.97;;;8.02;52.01
31299;BME280;17927;52.350;13.402;2023-02-15T00:36:21;102798.56;;;7.97;52.20
31299;BME280;17927;52.350;13.402;2023-02-15T00:38:46;102783.72;;;7.88;51.95
31299;BME280;17927;52.350;13.402;2023-02-15T00:41:14;102782.38;;;7.80;52.12
31299;BME280;17927;52.350;13.402;2023-02-15T00:43:39;102784.34;;;7.76;52.05
31299;BME280;17927;52.350;13.402;2023-02-15T00:46:05;102788.13;;;7.72;51.92
31299;BME280;17927;52.350;13.402;2023-02-15T00:48:30;102796.38;;;7.69;52.03
31299;BME280;17927;52.350;13.402;2023-02-15T00:50:57;102781.31;;;7.65;52.03
31299;BME280;17927;52.350;13.402;2023-02-15T00:53:25;102790.47;;;7.60;52.19
31299;BME280;17927;52.350;13.402;2023-02-15T00:55:51;102776.34;;;7.55;52.07
31299;BME280;17927;52.350;13.402;2023-02-15T00:58:17;102783.78;;;7.50;51.82
31299;BME280;17927;52.350;13.402;2023-02-15T01:00:43;102776.00;;;7.44;51.61
31299;BME280;17927;52.350;13.402;2023-02-15T01:03:09;102776.31;;;7.38;51.29
31299;BME280;17927;52.350;13.402;2023-02-15T01:05:35;102768.38;;;7.35;51.46
31299;BME280;17927;52.350;13.402;2023-02-15T01:08:00;102771.34;;;7.28;51.42
31299;BME280;17927;52.350;13.402;2023-02-15T01:10:26;102763.50;;;7.24;51.29
31299;BME280;17927;52.350;13.402;2023-02-15T01:12:52;102766.34;;;7.21;51.31
31299;BME280;17927;52.350;13.402;2023-02-15T01:15:18;102768.22;;;7.19;51.80
31299;BME280;17927;52.350;13.402;2023-02-15T01:17:43;102767.41;;;7.16;51.81
31299;BME280;17927;52.350;13.402;2023-02-15T01:20:14;102770.19;;;7.15;52.04
31299;BME280;17927;52.350;13.402;2023-02-15T01:22:40;102767.56;;;7.13;51.71
31299;BME280;17927;52.350;13.402;2023-02-15T01:25:05;102772.94;;;7.13;51.92
31299;BME280;17927;52.350;13.402;2023-02-15T01:27:30;102769.50;;;7.10;51.81
31299;BME280;17927;52.350;13.402;2023-02-15T01:29:56;102765.97;;;7.09;51.68
31299;BME280;17927;52.350;13.402;2023-02-15T01:32:22;102753.59;;;7.05;51.72
31299;BME280;17927;52.350;13.402;2023-02-15T01:34:47;102744.75;;;7.03;51.71
31299;BME280;17927;52.350;13.402;2023-02-15T01:37:15;102748.44;;;7.00;51.65
31299;BME280;17927;52.350;13.402;2023-02-15T01:39:40;102741.53;;;6.95;51.73
31299;BME280;17927;52.350;13.402;2023-02-15T01:42:10;102739.06;;;6.90;51.86
31299;BME280;17927;52.350;13.402;2023-02-15T01:49:46;102730.69;;;6.77;51.85
31299;BME280;17927;52.350;13.402;2023-02-15T01:52:14;102729.22;;;6.70;51.84
31299;BME280;17927;52.350;13.402;2023-02-15T01:54:43;102723.13;;;6.66;51.73
31299;BME280;17927;52.350;13.402;2023-02-15T01:57:12;102721.44;;;6.64;51.87
31299;BME280;17927;52.350;13.402;2023-02-15T01:59:40;102709.03;;;6.61;52.09
31299;BME280;17927;52.350;13.402;2023-02-15T02:02:09;102710.13;;;6.57;51.72
31299;BME280;17927;52.350;13.402;2023-02-15T02:04:48;102713.88;;;6.53;51.76
31299;BME280;17927;52.350;13.402;2023-02-15T02:07:16;102707.78;;;6.49;52.04
31299;BME280;17927;52.350;13.402;2023-02-15T02:09:42;102706.97;;;6.47;52.10
31299;BME280;17927;52.350;13.402;2023-02-15T02:12:08;102704.34;;;6.46;52.11
31299;BME280;17927;52.350;13.402;2023-02-15T02:14:35;102699.03;;;6.44;52.36
31299;BME280;17927;52.350;13.402;2023-02-15T02:17:11;102704.50;;;6.43;52.18
31299;BME280;17927;52.350;13.402;2023-02-15T02:22:58;102690.31;;;6.39;52.57
31299;BME280;17927;52.350;13.402;2023-02-15T02:28:19;102700.66;;;6.28;52.57
31299;BME280;17927;52.350;13.402;2023-02-15T02:31:14;102691.75;;;6.27;52.92
31299;BME280;17927;52.350;13.402;2023-02-15T02:33:57;102691.75;;;6.27;52.84
31299;BME280;17927;52.350;13.402;2023-02-15T02:36:49;102696.31;;;6.25;52.93
31299;BME280;17927;52.350;13.402;2023-02-15T02:39:28;102689.66;;;6.13;53.13
31299;BME280;17927;52.350;13.402;2023-02-15T02:41:58;102686.97;;;6.13;53.24
31299;BME280;17927;52.350;13.402;2023-02-15T02:44:30;102680.56;;;6.16;53.36
31299;BME280;17927;52.350;13.402;2023-02-15T02:47:24;102672.47;;;6.17;53.31
31299;BME280;17927;52.350;13.402;2023-02-15T02:50:04;102669.84;;;6.16;53.39
31299;BME280;17927;52.350;13.402;2023-02-15T02:55:24;102667.25;;;6.14;53.49
31299;BME280;17927;52.350;13.402;2023-02-15T02:58:04;102653.91;;;6.13;53.58
31299;BME280;17927;52.350;13.402;2023-02-15T03:00:34;102658.31;;;6.14;53.54
31299;BME280;17927;52.350;13.402;2023-02-15T03:03:09;102659.19;;;6.14;53.75
31299;BME280;17927;52.350;13.402;2023-02-15T03:05:39;102657.41;;;6.15;53.68
31299;BME280;17927;52.350;13.402;2023-02-15T03:08:06;102658.25;;;6.15;53.50
31299;BME280;17927;52.350;13.402;2023-02-15T03:10:35;102659.19;;;6.14;53.60
31299;BME280;17927;52.350;13.402;2023-02-15T03:13:02;102657.44;;;6.13;53.75
31299;BME280;17927;52.350;13.402;2023-02-15T03:15:34;102660.19;;;6.12;53.68
31299;BME280;17927;52.350;13.402;2023-02-15T03:18:23;102649.69;;;6.07;53.51
31299;BME280;17927;52.350;13.402;2023-02-15T03:20:51;102654.25;;;6.05;53.72
31299;BME280;17927;52.350;13.402;2023-02-15T03:23:21;102645.38;;;6.03;53.50
31299;BME280;17927;52.350;13.402;2023-02-15T03:25:51;102639.13;;;6.02;53.69
31299;BME280;17927;52.350;13.402;2023-02-15T03:28:23;102650.03;;;5.98;53.51
31299;BME280;17927;52.350;13.402;2023-02-15T03:30:53;102644.78;;;5.94;53.59
31299;BME280;17927;52.350;13.402;2023-02-15T03:33:21;102652.09;;;5.91;53.69
31299;BME280;17927;52.350;13.402;2023-02-15T03:36:03;102648.59;;;5.89;53.61
31299;BME280;17927;52.350;13.402;2023-02-15T03:38:33;102646.59;;;5.73;53.74
31299;BME280;17927;52.350;13.402;2023-02-15T03:41:01;102637.72;;;5.71;53.83
31299;BME280;17927;52.350;13.402;2023-02-15T03:43:47;102647.47;;;5.74;53.82
31299;BME280;17927;52.350;13.402;2023-02-15T03:46:32;102638.53;;;5.73;53.69
31299;BME280;17927;52.350;13.402;2023-02-15T03:49:04;102638.66;;;5.70;53.75
31299;BME280;17927;52.350;13.402;2023-02-15T03:51:35;102636.88;;;5.71;53.69
31299;BME280;17927;52.350;13.402;2023-02-15T03:54:27;102636.06;;;5.69;53.68
31299;BME280;17927;52.350;13.402;2023-02-15T03:57:18;102634.44;;;5.64;53.78
31299;BME280;17927;52.350;13.402;2023-02-15T04:05:40;102624.09;;;5.55;53.88
31299;BME280;17927;52.350;13.402;2023-02-15T04:08:06;102626.84;;;5.54;53.78
31299;BME280;17927;52.350;13.402;2023-02-15T04:10:31;102620.69;;;5.52;53.80
31299;BME280;17927;52.350;13.402;2023-02-15T04:13:14;102617.31;;;5.46;53.91
31299;BME280;17927;52.350;13.402;2023-02-15T04:15:40;102613.91;;;5.43;53.53
31299;BME280;17927;52.350;13.402;2023-02-15T04:18:24;102617.53;;;5.42;53.94
31299;BME280;17927;52.350;13.402;2023-02-15T04:21:07;102615.81;;;5.39;53.91
31299;BME280;17927;52.350;13.402;2023-02-15T04:23:51;102615.06;;;5.36;54.18
31299;BME280;17927;52.350;13.402;2023-02-15T04:26:35;102615.16;;;5.34;54.15
31299;BME280;17927;52.350;13.402;2023-02-15T04:29:00;102610.72;;;5.33;54.19
31299;BME280;17927;52.350;13.402;2023-02-15T04:31:26;102600.88;;;5.33;54.32
31299;BME280;17927;52.350;13.402;2023-02-15T04:33:51;102600.97;;;5.30;53.95
31299;BME280;17927;52.350;13.402;2023-02-15T04:36:16;102612.59;;;5.31;54.20
31299;BME280;17927;52.350;13.402;2023-02-15T04:38:41;102605.47;;;5.30;54.18
31299;BME280;17927;52.350;13.402;2023-02-15T04:41:07;102602.00;;;5.28;54.41
31299;BME280;17927;52.350;13.402;2023-02-15T04:43:32;102594.84;;;5.28;54.25
31299;BME280;17927;52.350;13.402;2023-02-15T04:45:58;102591.22;;;5.29;54.55
31299;BME280;17927;52.350;13.402;2023-02-15T04:48:23;102593.75;;;5.32;54.83
31299;BME280;17927;52.350;13.402;2023-02-15T04:50:49;102592.81;;;5.33;54.73
31299;BME280;17927;52.350;13.402;2023-02-15T04:53:14;102586.53;;;5.34;54.71
31299;BME280;17927;52.350;13.402;2023-02-15T04:55:41;102583.81;;;5.36;54.87
31299;BME280;17927;52.350;13.402;2023-02-15T04:58:06;102582.88;;;5.37;55.11
31299;BME280;17927;52.350;13.402;2023-02-15T05:00:32;102579.28;;;5.37;54.95
31299;BME280;17927;52.350;13.402;2023-02-15T05:02:57;102571.25;;;5.37;54.87
31299;BME280;17927;52.350;13.402;2023-02-15T05:05:22;102575.69;;;5.38;55.10
31299;BME280;17927;52.350;13.402;2023-02-15T05:07:47;102569.47;;;5.37;55.24
31299;BME280;17927;52.350;13.402;2023-02-15T05:10:13;102568.56;;;5.37;55.29
31299;BME280;17927;52.350;13.402;2023-02-15T05:12:38;102559.81;;;5.33;55.13
31299;BME280;17927;52.350;13.402;2023-02-15T05:15:03;102563.41;;;5.32;55.01
31299;BME280;17927;52.350;13.402;2023-02-15T05:17:28;102564.28;;;5.32;55.33
31299;BME280;17927;52.350;13.402;2023-02-15T05:19:54;102565.16;;;5.33;55.48
31299;BME280;17927;52.350;13.402;2023-02-15T05:22:19;102554.44;;;5.33;55.56
31299;BME280;17927;52.350;13.402;2023-02-15T05:24:44;102556.22;;;5.32;55.67
31299;BME280;17927;52.350;13.402;2023-02-15T05:27:28;102555.41;;;5.30;55.41
31299;BME280;17927;52.350;13.402;2023-02-15T05:30:12;102552.91;;;5.27;55.33
31299;BME280;17927;52.350;13.402;2023-02-15T05:32:38;102545.84;;;5.25;55.80
31299;BME280;17927;52.350;13.402;2023-02-15T05:35:05;102548.50;;;5.25;55.42
31299;BME280;17927;52.350;13.402;2023-02-15T05:37:30;102553.81;;;5.26;55.69
31299;BME280;17927;52.350;13.402;2023-02-15T05:39:56;102552.91;;;5.27;55.85
31299;BME280;17927;52.350;13.402;2023-02-15T05:42:21;102552.81;;;5.29;55.76
31299;BME280;17927;52.350;13.402;2023-02-15T05:44:46;102550.94;;;5.31;55.67
31299;BME280;17927;52.350;13.402;2023-02-15T05:47:11;102543.75;;;5.31;55.53
31299;BME280;17927;52.350;13.402;2023-02-15T05:49:37;102542.84;;;5.32;55.52
31299;BME280;17927;52.350;13.402;2023-02-15T05:52:03;102543.72;;;5.33;55.57
31299;BME280;17927;52.350;13.402;2023-02-15T05:54:28;102542.84;;;5.32;55.67
31299;BME280;17927;52.350;13.402;2023-02-15T05:56:54;102536.66;;;5.30;55.65
31299;BME280;17927;52.350;13.402;2023-02-15T05:59:19;102550.13;;;5.29;55.62
31299;BME280;17927;52.350;13.402;2023-02-15T06:01:44;102539.50;;;5.27;55.92
31299;BME280;17927;52.350;13.402;2023-02-15T06:04:09;102544.97;;;5.24;55.64
31299;BME280;17927;52.350;13.402;2023-02-15T06:06:34;102541.56;;;5.21;55.71
31299;BME280;17927;52.350;13.402;2023-02-15T06:09:00;102542.63;;;5.16;55.52
31299;BME280;17927;52.350;13.402;2023-02-15T06:11:25;102543.66;;;5.12;55.81
31299;BME280;17927;52.350;13.402;2023-02-15T06:13:50;102545.53;;;5.10;55.78
31299;BME280;17927;52.350;13.402;2023-02-15T06:16:16;102548.34;;;5.07;55.71
31299;BME280;17927;52.350;13.402;2023-02-15T06:18:41;102545.66;;;5.07;55.85
31299;BME280;17927;52.350;13.402;2023-02-15T06:21:06;102545.75;;;5.06;56.15
31299;BME280;17927;52.350;13.402;2023-02-15T06:23:32;102540.44;;;5.04;55.99
31299;BME280;17927;52.350;13.402;2023-02-15T06:25:57;102540.50;;;5.02;55.94
31299;BME280;17927;52.350;13.402;2023-02-15T06:28:22;102547.69;;;5.02;56.08
31299;BME280;17927;52.350;13.402;2023-02-15T06:30:49;102545.00;;;5.02;55.96
31299;BME280;17927;52.350;13.402;2023-02-15T06:33:14;102544.09;;;5.01;56.15
31299;BME280;17927;52.350;13.402;2023-02-15T06:35:39;102546.78;;;5.01;55.94
31299;BME280;17927;52.350;13.402;2023-02-15T06:38:05;102541.50;;;5.00;56.14
31299;BME280;17927;52.350;13.402;2023-02-15T06:40:30;102531.72;;;4.99;56.17
31299;BME280;17927;52.350;13.402;2023-02-15T06:42:55;102540.63;;;4.99;56.24
31299;BME280;17927;52.350;13.402;2023-02-15T06:45:20;102548.72;;;4.98;56.04
31299;BME280;17927;52.350;13.402;2023-02-15T06:47:45;102537.09;;;4.99;56.23
31299;BME280;17927;52.350;13.402;2023-02-15T06:50:11;102537.09;;;4.99;56.19
31299;BME280;17927;52.350;13.402;2023-02-15T06:52:36;102529.03;;;4.99;56.29
31299;BME280;17927;52.350;13.402;2023-02-15T06:55:02;102530.78;;;5.00;56.35
31299;BME280;17927;52.350;13.402;2023-02-15T06:57:27;102533.41;;;5.01;56.50
31299;BME280;17927;52.350;13.402;2023-02-15T06:59:53;102531.72;;;4.99;56.37
31299;BME280;17927;52.350;13.402;2023-02-15T07:02:18;102532.56;;;4.99;56.14
31299;BME280;17927;52.350;13.402;2023-02-15T07:04:43;102521.00;;;4.99;56.40
31299;BME280;17927;52.350;13.402;2023-02-15T07:07:09;102526.28;;;5.00;56.45
31299;BME280;17927;52.350;13.402;2023-02-15T07:09:36;102528.13;;;5.00;56.50
31299;BME280;17927;52.350;13.402;2023-02-15T07:12:01;102519.06;;;5.02;56.61
31299;BME280;17927;52.350;13.402;2023-02-15T07:14:45;102515.53;;;5.02;56.48
31299;BME280;17927;52.350;13.402;2023-02-15T07:17:10;102534.22;;;5.03;56.67
31299;BME280;17927;52.350;13.402;2023-02-15T07:19:35;102524.41;;;5.02;56.51
31299;BME280;17927;52.350;13.402;2023-02-15T07:22:01;102518.22;;;5.02;56.58
31299;BME280;17927;52.350;13.402;2023-02-15T07:24:26;102518.22;;;5.02;56.69
31299;BME280;17927;52.350;13.402;2023-02-15T07:26:51;102519.97;;;5.03;56.64
31299;BME280;17927;52.350;13.402;2023-02-15T07:29:16;102518.09;;;5.05;56.94
31299;BME280;17927;52.350;13.402;2023-02-15T07:31:42;102522.34;;;5.09;56.88
31299;BME280;17927;52.350;13.402;2023-02-15T07:34:10;102525.84;;;5.11;56.89
31299;BME280;17927;52.350;13.402;2023-02-15T07:36:35;102521.31;;;5.13;56.66
31299;BME280;17927;52.350;13.402;2023-02-15T07:39:01;102509.84;;;5.10;56.84
31299;BME280;17927;52.350;13.402;2023-02-15T07:41:26;102514.28;;;5.11;56.64
31299;BME280;17927;52.350;13.402;2023-02-15T07:43:51;102508.91;;;5.11;56.63
31299;BME280;17927;52.350;13.402;2023-02-15T07:46:17;102503.56;;;5.11;56.47
31299;BME280;17927;52.350;13.402;2023-02-15T07:48:43;102500.00;;;5.10;56.55
31299;BME280;17927;52.350;13.402;2023-02-15T07:51:10;102491.91;;;5.12;56.87
31299;BME280;17927;52.350;13.402;2023-02-15T07:53:37;102489.06;;;5.15;56.87
31299;BME280;17927;52.350;13.402;2023-02-15T07:56:04;102495.25;;;5.17;56.89
31299;BME280;17927;52.350;13.402;2023-02-15T07:58:31;102497.88;;;5.18;56.83
31299;BME280;17927;52.350;13.402;2023-02-15T08:01:15;102487.16;;;5.18;56.80
31299;BME280;17927;52.350;13.402;2023-02-15T08:03:40;102484.31;;;5.22;56.95
31299;BME280;17927;52.350;13.402;2023-02-15T08:06:06;102485.91;;;5.27;57.00
31299;BME280;17927;52.350;13.402;2023-02-15T08:08:34;102488.41;;;5.30;57.16
31299;BME280;17927;52.350;13.402;2023-02-15T08:11:15;102476.63;;;5.34;57.00
31299;BME280;17927;52.350;13.402;2023-02-15T08:14:18;102486.41;;;5.36;57.38
31299;BME280;17927;52.350;13.402;2023-02-15T08:16:50;102492.50;;;5.39;57.34
31299;BME280;17927;52.350;13.402;2023-02-15T08:19:21;102480.72;;;5.43;57.27
31299;BME280;17927;52.350;13.402;2023-02-15T08:21:48;102483.69;;;5.37;57.21
31299;BME280;17927;52.350;13.402;2023-02-15T08:24:16;102476.31;;;5.42;57.39
31299;BME280;17927;52.350;13.402;2023-02-15T08:26:42;102484.91;;;5.51;57.39
31299;BME280;17927;52.350;13.402;2023-02-15T08:29:09;102477.50;;;5.56;56.94
31299;BME280;17927;52.350;13.402;2023-02-15T08:31:36;102472.91;;;5.59;57.26
31299;BME280;17927;52.350;13.402;2023-02-15T08:34:03;102472.69;;;5.64;57.29
31299;BME280;17927;52.350;13.402;2023-02-15T08:36:29;102471.63;;;5.68;57.51
31299;BME280;17927;52.350;13.402;2023-02-15T08:39:02;102470.47;;;5.74;57.52
31299;BME280;17927;52.350;13.402;2023-02-15T08:41:30;102472.78;;;5.82;57.36
31299;BME280;17927;52.350;13.402;2023-02-15T08:43:58;102456.41;;;5.88;57.33
31299;BME280;17927;52.350;13.402;2023-02-15T08:46:26;102462.44;;;5.93;57.37
31299;BME280;17927;52.350;13.402;2023-02-15T08:48:52;102458.69;;;5.97;57.62
31299;BME280;17927;52.350;13.402;2023-02-15T08:51:19;102456.66;;;6.02;57.33
31299;BME280;17927;52.350;13.402;2023-02-15T08:53:47;102444.84;;;6.06;57.46
31299;BME280;17927;52.350;13.402;2023-02-15T08:56:16;102449.94;;;6.13;57.65
31299;BME280;17927;52.350;13.402;2023-02-15T08:58:42;102444.25;;;6.19;57.70
31299;BME280;17927;52.350;13.402;2023-02-15T09:01:13;102445.78;;;6.24;57.86
31299;BME280;17927;52.350;13.402;2023-02-15T09:03:39;102438.38;;;6.30;57.57
31299;BME280;17927;52.350;13.402;2023-02-15T09:06:05;102432.78;;;6.34;57.57
31299;BME280;17927;52.350;13.402;2023-02-15T09:08:30;102426.25;;;6.40;57.89
31299;BME280;17927;52.350;13.402;2023-02-15T09:11:14;102437.56;;;6.47;57.83
31299;BME280;17927;52.350;13.402;2023-02-15T09:13:42;102431.19;;;6.49;57.52
31299;BME280;17927;52.350;13.402;2023-02-15T09:16:09;102426.44;;;6.54;57.43
31299;BME280;17927;52.350;13.402;2023-02-15T09:18:37;102431.63;;;6.59;57.59
31299;BME280;17927;52.350;13.402;2023-02-15T09:21:14;102434.06;;;6.64;57.84
31299;BME280;17927;52.350;13.402;2023-02-15T09:23:40;102423.09;;;6.68;57.63
31299;BME280;17927;52.350;13.402;2023-02-15T09:26:09;102426.34;;;6.75;57.75
31299;BME280;17927;52.350;13.402;2023-02-15T09:28:35;102426.03;;;6.81;57.90
31299;BME280;17927;52.350;13.402;2023-02-15T09:31:08;102419.47;;;6.87;57.96
31299;BME280;17927;52.350;13.402;2023-02-15T09:33:34;102422.72;;;6.94;58.14
31299;BME280;17927;52.350;13.402;2023-02-15T09:36:00;102425.97;;;7.00;57.95
31299;BME280;17927;52.350;13.402;2023-02-15T09:38:26;102427.47;;;7.06;57.83
31299;BME280;17927;52.350;13.402;2023-02-15T09:41:05;102442.34;;;7.13;57.98
31299;BME280;17927;52.350;13.402;2023-02-15T09:46:45;102424.84;;;7.22;57.93
31299;BME280;17927;52.350;13.402;2023-02-15T09:55:22;102415.63;;;7.44;58.28
31299;BME280;17927;52.350;13.402;2023-02-15T09:58:10;102422.50;;;7.50;57.69
31299;BME280;17927;52.350;13.402;2023-02-15T10:00:49;102412.38;;;7.55;57.71
31299;BME280;17927;52.350;13.402;2023-02-15T10:03:30;102420.13;;;7.61;57.73
31299;BME280;17927;52.350;13.402;2023-02-15T10:09:07;102412.34;;;7.72;58.19
31299;BME280;17927;52.350;13.402;2023-02-15T10:11:48;102416.34;;;7.81;57.73
31299;BME280;17927;52.350;13.402;2023-02-15T10:14:31;102406.97;;;7.88;57.90
31299;BME280;17927;52.350;13.402;2023-02-15T10:20:03;102404.38;;;8.03;57.68
31299;BME280;17927;52.350;13.402;2023-02-15T10:25:54;102399.53;;;8.10;57.51
31299;BME280;17927;52.350;13.402;2023-02-15T10:28:17;102398.56;;;8.11;57.17
31299;BME280;17927;52.350;13.402;2023-02-15T10:30:48;102399.88;;;8.19;57.33
31299;BME280;17927;52.350;13.402;2023-02-15T10:33:30;102389.53;;;8.28;57.60
31299;BME280;17927;52.350;13.402;2023-02-15T10:36:16;102382.81;;;8.35;57.72
31299;BME280;17927;52.350;13.402;2023-02-15T10:38:58;102390.41;;;8.44;57.33
31299;BME280;17927;52.350;13.402;2023-02-15T10:47:20;102372.47;;;8.59;57.50
31299;BME280;17927;52.350;13.402;2023-02-15T10:55:16;102365.25;;;8.90;57.68
31299;BME280;17927;52.350;13.402;2023-02-15T11:00:47;102361.38;;;9.10;57.70
31299;BME280;17927;52.350;13.402;2023-02-15T11:03:35;102362.44;;;9.22;57.84
31299;BME280;17927;52.350;13.402;2023-02-15T11:06:09;102358.22;;;9.33;57.94
31299;BME280;17927;52.350;13.402;2023-02-15T11:08:41;102351.16;;;9.44;57.96
31299;BME280;17927;52.350;13.402;2023-02-15T11:11:11;102350.50;;;9.55;58.01
31299;BME280;17927;52.350;13.402;2023-02-15T11:13:41;102351.56;;;9.67;58.10
31299;BME280;17927;52.350;13.402;2023-02-15T11:16:17;102344.50;;;9.79;58.13
31299;BME280;17927;52.350;13.402;2023-02-15T11:18:58;102353.63;;;9.91;58.00
31299;BME280;17927;52.350;13.402;2023-02-15T11:21:33;102343.75;;;10.04;58.21
31299;BME280;17927;52.350;13.402;2023-02-15T11:24:30;102333.13;;;10.16;57.96
31299;BME280;17927;52.350;13.402;2023-02-15T11:27:11;102334.38;;;10.25;58.07
31299;BME280;17927;52.350;13.402;2023-02-15T11:29:50;102328.22;;;10.35;58.42
31299;BME280;17927;52.350;13.402;2023-02-15T11:32:20;102329.06;;;10.50;58.41
31299;BME280;17927;52.350;13.402;2023-02-15T11:37:45;102323.50;;;10.79;58.46
31299;BME280;17927;52.350;13.402;2023-02-15T11:40:19;102308.91;;;10.95;58.71
31299;BME280;17927;52.350;13.402;2023-02-15T11:42:46;102312.38;;;11.10;58.65
31299;BME280;17927;52.350;13.402;2023-02-15T11:45:28;102306.75;;;11.26;58.57
31299;BME280;17927;52.350;13.402;2023-02-15T11:47:56;102302.09;;;11.41;58.87
31299;BME280;17927;52.350;13.402;2023-02-15T11:50:24;102295.44;;;11.58;58.98
31299;BME280;17927;52.350;13.402;2023-02-15T11:52:51;102295.06;;;11.76;59.09
31299;BME280;17927;52.350;13.402;2023-02-15T11:55:20;102295.53;;;11.94;59.03
31299;BME280;17927;52.350;13.402;2023-02-15T11:57:52;102298.63;;;12.13;58.46
31299;BME280;17927;52.350;13.402;2023-02-15T12:00:35;102290.09;;;12.31;58.51
31299;BME280;17927;52.350;13.402;2023-02-15T12:03:08;102285.00;;;12.51;58.67
31299;BME280;17927;52.350;13.402;2023-02-15T12:05:39;102286.25;;;12.69;58.63
31299;BME280;17927;52.350;13.402;2023-02-15T12:08:13;102285.56;;;12.90;58.28
31299;BME280;17927;52.350;13.402;2023-02-15T12:10:46;102280.41;;;13.09;58.41
31299;BME280;17927;52.350;13.402;2023-02-15T12:13:19;102287.09;;;13.28;58.18
31299;BME280;17927;52.350;13.402;2023-02-15T12:15:46;102281.19;;;13.46;57.86
31299;BME280;17927;52.350;13.402;2023-02-15T12:18:39;102274.97;;;13.66;56.98
31299;BME280;17927;52.350;13.402;2023-02-15T12:21:08;102279.03;;;13.83;57.20
31299;BME280;17927;52.350;13.402;2023-02-15T12:23:41;102274.66;;;14.04;56.37
31299;BME280;17927;52.350;13.402;2023-02-15T12:26:07;102283.09;;;14.22;56.44
31299;BME280;17927;52.350;13.402;2023-02-15T12:28:41;102279.53;;;14.42;55.02
31299;BME280;17927;52.350;13.402;2023-02-15T12:31:19;102270.91;;;14.58;54.80
31299;BME280;17927;52.350;13.402;2023-02-15T12:33:45;102271.50;;;14.73;55.09
31299;BME280;17927;52.350;13.402;2023-02-15T12:36:20;102259.13;;;14.90;54.05
31299;BME280;17927;52.350;13.402;2023-02-15T12:41:37;102247.25;;;15.22;54.29
31299;BME280;17927;52.350;13.402;2023-02-15T12:49:36;102237.63;;;15.79;52.04
31299;BME280;17927;52.350;13.402;2023-02-15T12:54:43;102225.06;;;16.07;52.42
31299;BME280;17927;52.350;13.402;2023-02-15T12:57:34;102221.75;;;16.23;51.78
31299;BME280;17927;52.350;13.402;2023-02-15T13:05:19;102209.91;;;16.72;50.21
31299;BME280;17927;52.350;13.402;2023-02-15T13:07:51;102205.84;;;16.86;50.66
31299;BME280;17927;52.350;13.402;2023-02-15T13:10:22;102201.47;;;17.03;50.11
31299;BME280;17927;52.350;13.402;2023-02-15T13:12:49;102207.00;;;17.21;50.03
31299;BME280;17927;52.350;13.402;2023-02-15T13:15:28;102188.78;;;17.40;48.62
31299;BME280;17927;52.350;13.402;2023-02-15T13:17:56;102190.44;;;17.50;48.54
31299;BME280;17927;52.350;13.402;2023-02-15T13:20:22;102182.88;;;17.62;48.35
31299;BME280;17927;52.350;13.402;2023-02-15T13:22:50;102187.50;;;17.80;48.26
31299;BME280;17927;52.350;13.402;2023-02-15T13:25:21;102185.94;;;17.95;47.31
31299;BME280;17927;52.350;13.402;2023-02-15T13:27:51;102179.63;;;18.13;46.96
31299;BME280;17927;52.350;13.402;2023-02-15T13:30:20;102171.25;;;18.15;49.09
31299;BME280;17927;52.350;13.402;2023-02-15T13:32:49;102169.88;;;18.37;48.63
31299;BME280;17927;52.350;13.402;2023-02-15T13:35:17;102169.00;;;18.63;47.95
31299;BME280;17927;52.350;13.402;2023-02-15T13:42:54;102146.38;;;19.22;45.11
31299;BME280;17927;52.350;13.402;2023-02-15T13:45:39;102139.19;;;19.29;44.12
31299;BME280;17927;52.350;13.402;2023-02-15T13:48:24;102146.41;;;19.30;43.73
31299;BME280;17927;52.350;13.402;2023-02-15T13:51:07;102140.41;;;19.26;42.99
31299;BME280;17927;52.350;13.402;2023-02-15T13:53:54;102143.78;;;19.20;43.42
31299;BME280;17927;52.350;13.402;2023-02-15T13:59:05;102138.97;;;19.06;42.61
31299;BME280;17927;52.350;13.402;2023-02-15T14:01:58;;;;18.97;
31299;BME280;17927;52.350;13.402;2023-02-15T14:04:53;102141.09;;;18.94;42.78
31299;BME280;17927;52.350;13.402;2023-02-15T14:07:46;102139.09;;;18.96;42.65
31299;BME280;17927;52.350;13.402;2023-02-15T14:10:26;102136.03;;;18.99;43.03
31299;BME280;17927;52.350;13.402;2023-02-15T14:13:10;102141.19;;;19.10;42.99
31299;BME280;17927;52.350;13.402;2023-02-15T14:16:05;102142.25;;;19.26;42.96
31299;BME280;17927;52.350;13.402;2023-02-15T14:18:44;102143.69;;;19.46;43.06
31299;BME280;17927;52.350;13.402;2023-02-15T14:22:07;102150.91;;;19.72;43.02
31299;BME280;17927;52.350;13.402;2023-02-15T14:24:59;102145.13;;;19.92;42.91
31299;BME280;17927;52.350;13.402;2023-02-15T14:27:51;102149.59;;;20.10;42.05